Time;durP1;ratioP1;P1;durP2;ratioP2;P2;SDS_P1;SDS_P2;PMS_P1;PMS_P2;Temp;Humidity;BMP_temperature;BMP_pressure;BME280_temperature;BME280_humidity;BME280_pressure;Samples;Min_cycle;Max_cycle;Signal;HPM_P1;HPM_P2
2023/12/09 00:01:06;;;;;;;28.15;18.75;;;;;;;-0.54;100.00;92952.44;4991928;28;20046;-77
2023/12/09 00:03:33;;;;;;;26.05;18.60;;;;;;;-0.64;100.00;92966.88;4999846;28;20419;-77
2023/12/09 00:06:02;;;;;;;25.98;18.20;;;;;;;-0.60;100.00;92963.16;4996761;28;20050;-77
2023/12/09 00:08:29;;;;;;;29.02;20.65;;;;;;;-0.65;100.00;92962.78;4988443;28;20052;-77
2023/12/09 00:10:56;;;;;;;26.92;19.05;;;;;;;-0.58;100.00;92938.53;5003911;28;20744;-77
2023/12/09 00:13:22;;;;;;;22.70;16.92;;;;;;;-0.41;100.00;92967.97;5002002;28;20050;-77
2023/12/09 00:15:49;;;;;;;23.88;17.05;;;;;;;-0.37;100.00;92967.69;4988578;28;20050;-76
2023/12/09 00:18:16;;;;;;;22.33;16.23;;;;;;;-0.32;100.00;92971.34;4988700;28;20050;-77
2023/12/09 00:20:44;;;;;;;20.45;15.48;;;;;;;-0.30;100.00;92978.78;4988284;28;20145;-77
2023/12/09 00:23:12;;;;;;;22.17;15.73;;;;;;;-0.19;100.00;92975.22;4988138;28;20050;-77
2023/12/09 00:25:39;;;;;;;22.38;15.80;;;;;;;-0.30;100.00;92958.59;5003597;28;20053;-77
2023/12/09 00:28:06;;;;;;;21.25;15.90;;;;;;;-0.17;100.00;92964.03;4996018;28;20133;-77
2023/12/09 00:30:33;;;;;;;23.10;17.30;;;;;;;-0.04;100.00;92965.34;4988912;28;20050;-77
2023/12/09 00:33:00;;;;;;;22.10;16.65;;;;;;;0.08;100.00;92976.75;4992379;28;20592;-77
2023/12/09 00:35:27;;;;;;;21.00;16.45;;;;;;;0.21;100.00;92971.28;4993165;28;20173;-77
2023/12/09 00:37:54;;;;;;;24.63;17.77;;;;;;;0.24;100.00;92952.53;4988814;28;20081;-77
2023/12/09 00:40:22;;;;;;;22.65;17.63;;;;;;;0.44;100.00;92963.16;4988964;28;20050;-77
2023/12/09 00:42:49;;;;;;;24.15;17.73;;;;;;;0.28;100.00;92927.72;4988449;28;20784;-77
2023/12/09 00:45:16;;;;;;;25.38;18.98;;;;;;;0.43;100.00;92946.41;4988468;28;20066;-77
2023/12/09 00:47:43;;;;;;;26.27;18.98;;;;;;;0.56;100.00;92971.25;4992691;28;20089;-77
2023/12/09 00:50:10;;;;;;;24.85;18.35;;;;;;;0.41;100.00;92970.25;4988135;28;20050;-77
2023/12/09 00:52:38;;;;;;;26.00;18.23;;;;;;;0.48;100.00;92964.44;4990348;28;20043;-77
2023/12/09 00:55:06;;;;;;;24.75;18.70;;;;;;;0.39;100.00;92963.63;4987598;28;20042;-77
2023/12/09 00:57:35;;;;;;;24.23;17.55;;;;;;;0.40;100.00;92974.50;4987962;28;20046;-77
2023/12/09 01:00:02;;;;;;;24.60;18.13;;;;;;;0.46;100.00;92973.88;4990184;28;20416;-76
2023/12/09 01:02:29;;;;;;;26.23;18.73;;;;;;;0.63;100.00;92969.69;5005799;28;20084;-76
2023/12/09 01:04:57;;;;;;;35.45;20.95;;;;;;;0.81;100.00;92971.28;5003779;28;20064;-77
2023/12/09 01:07:24;;;;;;;35.60;22.23;;;;;;;0.86;100.00;92980.94;4988861;28;20042;-77
2023/12/09 01:09:51;;;;;;;28.85;20.48;;;;;;;0.90;100.00;92965.31;4990024;28;20053;-77
2023/12/09 01:12:17;;;;;;;22.48;17.40;;;;;;;0.74;100.00;92968.59;4995054;28;20046;-77
2023/12/09 01:14:46;;;;;;;21.67;16.30;;;;;;;0.83;100.00;92978.72;4991562;28;20053;-77
2023/12/09 01:17:13;;;;;;;21.42;15.27;;;;;;;0.70;100.00;92974.91;4993601;28;20034;-77
2023/12/09 01:19:40;;;;;;;24.35;17.50;;;;;;;0.46;100.00;92968.84;4991595;28;20447;-77
2023/12/09 01:22:07;;;;;;;22.67;16.70;;;;;;;0.40;100.00;92977.03;4991126;28;20177;-77
2023/12/09 01:24:33;;;;;;;19.67;14.20;;;;;;;0.42;100.00;92981.94;4993259;28;20141;-77
2023/12/09 01:27:01;;;;;;;23.80;17.10;;;;;;;0.43;100.00;92969.16;4998279;28;20050;-77
2023/12/09 01:29:28;;;;;;;21.33;15.38;;;;;;;0.48;100.00;92976.28;4991342;28;20145;-79
2023/12/09 01:31:56;;;;;;;22.60;16.35;;;;;;;0.27;100.00;92952.19;4992974;28;20052;-79
2023/12/09 01:34:23;;;;;;;22.95;15.68;;;;;;;0.40;100.00;92969.47;4991536;28;20054;-79
2023/12/09 01:36:50;;;;;;;20.38;15.35;;;;;;;0.46;100.00;92968.06;4992502;28;20595;-81
2023/12/09 01:39:17;;;;;;;20.92;15.68;;;;;;;0.53;100.00;92967.31;4990880;28;20051;-80
2023/12/09 01:41:44;;;;;;;19.75;14.77;;;;;;;0.70;100.00;92969.88;4994976;28;20061;-80
2023/12/09 01:44:11;;;;;;;18.15;13.75;;;;;;;0.62;100.00;92955.47;4991757;28;20046;-80
2023/12/09 01:46:39;;;;;;;16.80;12.88;;;;;;;0.74;100.00;92960.22;5008908;28;20210;-81
2023/12/09 01:49:07;;;;;;;17.88;13.07;;;;;;;0.51;100.00;92955.75;4999498;28;20053;-81
2023/12/09 01:51:35;;;;;;;19.92;14.75;;;;;;;0.59;100.00;92973.47;4990814;28;20050;-82
2023/12/09 01:54:02;;;;;;;18.30;12.27;;;;;;;0.53;100.00;92971.56;4990422;28;20057;-77
2023/12/09 01:56:29;;;;;;;18.23;13.73;;;;;;;0.72;100.00;92972.22;4997534;28;20050;-79
2023/12/09 01:58:55;;;;;;;18.25;13.63;;;;;;;0.85;100.00;92970.03;4990987;28;20136;-79
2023/12/09 02:01:24;;;;;;;18.67;13.82;;;;;;;0.89;100.00;92970.50;4995918;28;20061;-80
2023/12/09 02:03:51;;;;;;;19.20;13.38;;;;;;;0.84;100.00;92965.94;4990486;28;20046;-79
2023/12/09 02:06:20;;;;;;;14.90;11.63;;;;;;;0.83;100.00;92945.84;4992588;28;20050;-78
2023/12/09 02:08:47;;;;;;;17.90;13.43;;;;;;;0.98;100.00;92961.19;5008109;28;20042;-78
2023/12/09 02:11:20;;;;;;;15.63;11.50;;;;;;;0.91;100.00;92966.88;4996344;28;20057;-78
2023/12/09 02:13:56;;;;;;;16.70;12.70;;;;;;;0.92;100.00;92963.41;5008291;28;20056;-78
2023/12/09 02:16:30;;;;;;;16.20;12.15;;;;;;;0.96;100.00;92963.88;4993034;28;20096;-78
2023/12/09 02:18:58;;;;;;;18.40;13.00;;;;;;;1.05;100.00;92973.06;5005605;28;20060;-78
2023/12/09 02:21:27;;;;;;;17.38;12.82;;;;;;;1.11;100.00;92965.78;4989982;28;20564;-79
2023/12/09 02:23:55;;;;;;;15.25;12.05;;;;;;;0.99;100.00;92937.47;4989809;28;20060;-78
2023/12/09 02:26:26;;;;;;;12.75;10.93;;;;;;;1.20;100.00;92959.78;4989737;28;20149;-78
2023/12/09 02:29:01;;;;;;;14.32;11.20;;;;;;;1.22;100.00;92960.41;4992815;28;20054;-78
2023/12/09 02:31:32;;;;;;;16.13;12.00;;;;;;;1.17;100.00;92963.41;4990817;28;20611;-78
2023/12/09 02:34:02;;;;;;;15.18;10.95;;;;;;;1.16;100.00;92950.94;4997603;28;20141;-78
2023/12/09 02:36:30;;;;;;;14.90;10.82;;;;;;;1.28;100.00;92962.31;5007741;28;20455;-78
2023/12/09 02:39:01;;;;;;;13.70;10.13;;;;;;;1.30;100.00;92959.63;4992241;28;20462;-78
2023/12/09 02:41:29;;;;;;;13.68;10.30;;;;;;;1.22;100.00;92957.91;4990017;28;20543;-78
2023/12/09 02:43:57;;;;;;;14.40;11.05;;;;;;;1.19;100.00;92958.19;4990266;28;20056;-78
2023/12/09 02:46:24;;;;;;;15.40;11.13;;;;;;;1.08;100.00;92955.97;4995251;28;20058;-78
2023/12/09 02:48:51;;;;;;;15.65;11.20;;;;;;;1.20;100.00;92949.66;4989683;28;20065;-78
2023/12/09 02:51:18;;;;;;;15.60;11.20;;;;;;;1.27;100.00;92952.34;4989872;28;20050;-78
2023/12/09 02:53:45;;;;;;;17.35;13.25;;;;;;;1.17;100.00;92952.50;4999756;28;20137;-78
2023/12/09 02:56:13;;;;;;;17.48;12.88;;;;;;;1.15;100.00;92949.38;4997236;28;20054;-78
2023/12/09 02:58:40;;;;;;;12.88;9.35;;;;;;;1.08;100.00;92955.97;4994910;28;20056;-78
2023/12/09 03:01:07;;;;;;;13.50;9.93;;;;;;;0.78;100.00;92951.38;4993198;28;20046;-79
2023/12/09 03:03:34;;;;;;;20.30;11.88;;;;;;;0.89;100.00;92956.13;4990216;28;20066;-79
2023/12/09 03:06:01;;;;;;;15.02;10.63;;;;;;;0.81;100.00;92956.13;4996144;28;20046;-76
2023/12/09 03:08:28;;;;;;;14.70;10.50;;;;;;;0.79;100.00;92932.75;4990004;28;20053;-79
2023/12/09 03:10:55;;;;;;;15.70;11.10;;;;;;;0.84;100.00;92925.47;4997821;28;20065;-78
2023/12/09 03:13:25;;;;;;;13.50;10.23;;;;;;;1.06;100.00;92946.00;4995689;28;20050;-78
2023/12/09 03:15:51;;;;;;;13.27;10.70;;;;;;;1.16;100.00;92953.47;5003664;28;20050;-79
2023/12/09 03:18:18;;;;;;;15.25;10.85;;;;;;;1.23;100.00;92948.53;4990545;28;20057;-79
2023/12/09 03:20:45;;;;;;;12.43;10.00;;;;;;;1.24;100.00;92958.50;4989506;28;20064;-78
2023/12/09 03:23:12;;;;;;;14.85;10.52;;;;;;;1.12;100.00;92945.41;4989870;28;20076;-79
2023/12/09 03:25:39;;;;;;;13.27;9.18;;;;;;;1.22;100.00;92944.44;5001746;28;20054;-79
2023/12/09 03:28:06;;;;;;;12.60;9.13;;;;;;;1.43;100.00;92961.69;4997601;28;20068;-79
2023/12/09 03:30:34;;;;;;;12.25;9.05;;;;;;;1.22;100.00;92957.09;4998044;28;20133;-79
2023/12/09 03:33:02;;;;;;;11.70;8.93;;;;;;;1.13;100.00;92961.34;4993226;28;20057;-79
2023/12/09 03:35:29;;;;;;;13.20;10.50;;;;;;;1.20;100.00;92963.09;4988936;28;20054;-79
2023/12/09 03:37:56;;;;;;;13.52;9.98;;;;;;;1.22;100.00;92968.00;4983308;28;20131;-79
2023/12/09 03:40:22;;;;;;;11.88;9.38;;;;;;;1.31;100.00;92961.97;4996230;28;20056;-79
2023/12/09 03:42:49;;;;;;;14.82;10.52;;;;;;;1.42;100.00;92967.69;4990469;28;20049;-78
2023/12/09 03:45:16;;;;;;;13.60;10.38;;;;;;;1.49;100.00;92972.91;4988826;28;20046;-78
2023/12/09 03:47:45;;;;;;;13.25;10.77;;;;;;;1.51;100.00;92976.84;4990304;28;20050;-77
2023/12/09 03:50:12;;;;;;;12.43;10.18;;;;;;;1.45;100.00;92965.59;4990968;28;20519;-77
2023/12/09 03:52:39;;;;;;;11.90;8.98;;;;;;;1.49;100.00;92971.16;5004120;28;20092;-77
2023/12/09 03:55:06;;;;;;;12.63;9.82;;;;;;;1.52;100.00;92978.44;4997701;28;20462;-78
2023/12/09 03:57:33;;;;;;;11.65;9.15;;;;;;;1.53;100.00;92980.00;4992397;28;20524;-78
2023/12/09 04:00:00;;;;;;;11.70;8.60;;;;;;;1.40;100.00;92985.56;4988643;28;20054;-78
2023/12/09 04:02:27;;;;;;;12.43;8.50;;;;;;;1.41;100.00;92984.63;4989502;28;20058;-78
2023/12/09 04:04:55;;;;;;;10.32;8.15;;;;;;;1.33;100.00;92984.59;4991522;28;20050;-77
2023/12/09 04:07:22;;;;;;;12.52;9.25;;;;;;;1.31;100.00;92984.75;4995434;28;20752;-78
2023/12/09 04:09:50;;;;;;;11.65;9.65;;;;;;;1.32;100.00;93000.75;4999188;28;20165;-78
2023/12/09 04:12:17;;;;;;;12.15;9.30;;;;;;;1.28;100.00;92991.88;4988629;28;20500;-78
2023/12/09 04:14:44;;;;;;;10.65;9.25;;;;;;;1.20;100.00;92990.94;4989788;28;20041;-77
2023/12/09 04:17:12;;;;;;;10.80;7.97;;;;;;;1.12;100.00;92977.50;4989104;28;20050;-78
2023/12/09 04:19:39;;;;;;;9.95;8.43;;;;;;;1.13;100.00;92987.47;4988405;28;20697;-77
2023/12/09 04:22:07;;;;;;;10.85;8.50;;;;;;;1.00;100.00;92987.91;4991775;28;20060;-78
2023/12/09 04:24:34;;;;;;;10.75;8.55;;;;;;;1.01;100.00;92981.91;4988549;28;20042;-78
2023/12/09 04:27:01;;;;;;;10.45;8.75;;;;;;;1.13;100.00;92984.94;5001800;28;20492;-78
2023/12/09 04:29:28;;;;;;;12.02;8.80;;;;;;;1.05;100.00;92985.72;5002040;28;20049;-78
2023/12/09 04:31:55;;;;;;;11.60;9.10;;;;;;;1.00;100.00;92990.44;4999916;28;20050;-78
2023/12/09 04:34:22;;;;;;;12.98;9.45;;;;;;;1.01;100.00;92981.09;4987941;28;20436;-80
2023/12/09 04:36:49;;;;;;;13.43;9.43;;;;;;;1.13;100.00;92986.66;4987761;28;20148;-78
2023/12/09 04:39:18;;;;;;;13.98;9.82;;;;;;;1.10;100.00;92990.28;4988104;28;20050;-78
2023/12/09 04:41:44;;;;;;;19.45;12.63;;;;;;;0.74;100.00;92983.75;4991569;28;20058;-77
2023/12/09 04:44:12;;;;;;;18.90;12.48;;;;;;;0.73;100.00;92984.72;4990174;28;20058;-79
2023/12/09 04:46:39;;;;;;;86.70;44.60;;;;;;;0.67;100.00;92980.28;4995534;28;20050;-79
2023/12/09 04:49:06;;;;;;;42.15;22.58;;;;;;;0.63;100.00;92994.16;4991508;28;21182;-79
2023/12/09 04:51:33;;;;;;;35.08;19.30;;;;;;;0.62;100.00;92997.63;5002458;28;20140;-79
2023/12/09 04:54:00;;;;;;;65.75;37.83;;;;;;;0.76;100.00;93004.63;4994875;28;20043;-77
2023/12/09 04:56:28;;;;;;;49.28;29.42;;;;;;;0.64;100.00;93008.38;4992340;28;20317;-78
2023/12/09 04:58:55;;;;;;;15.73;11.38;;;;;;;0.56;100.00;93004.13;4996221;28;20054;-78
2023/12/09 05:01:23;;;;;;;32.97;21.35;;;;;;;0.49;100.00;93010.72;5007918;28;20042;-78
2023/12/09 05:03:50;;;;;;;22.23;13.90;;;;;;;0.56;100.00;93003.31;5002535;28;20132;-78
2023/12/09 05:06:17;;;;;;;21.10;14.18;;;;;;;0.74;100.00;93000.69;5008427;28;20088;-77
2023/12/09 05:08:44;;;;;;;26.05;16.48;;;;;;;0.83;100.00;93001.50;4991781;28;20052;-77
2023/12/09 05:11:10;;;;;;;26.65;16.55;;;;;;;0.67;100.00;92990.38;4990875;28;20097;-77
2023/12/09 05:13:38;;;;;;;14.43;11.23;;;;;;;0.65;100.00;93010.75;4992224;28;20051;-77
2023/12/09 05:16:06;;;;;;;50.67;30.55;;;;;;;0.34;100.00;93006.25;4995458;28;20484;-78
2023/12/09 05:18:34;;;;;;;182.90;92.32;;;;;;;0.45;100.00;93011.94;4998364;28;20046;-78
2023/12/09 05:21:01;;;;;;;56.40;32.00;;;;;;;0.52;100.00;93018.00;4992660;28;20050;-77
2023/12/09 05:23:28;;;;;;;17.33;11.57;;;;;;;0.48;100.00;93012.47;4995026;28;20064;-77
2023/12/09 05:25:55;;;;;;;14.80;10.63;;;;;;;0.65;100.00;93015.81;4991184;28;20046;-78
2023/12/09 05:28:22;;;;;;;28.40;18.08;;;;;;;0.78;100.00;93017.09;4992251;28;20105;-77
2023/12/09 05:30:51;;;;;;;14.82;9.45;;;;;;;0.78;100.00;93012.03;4991214;28;20047;-77
2023/12/09 05:33:18;;;;;;;14.18;9.88;;;;;;;0.58;100.00;93016.56;4998211;28;20069;-77
2023/12/09 05:35:45;;;;;;;15.35;10.63;;;;;;;0.64;100.00;93019.28;4991740;28;20046;-78
2023/12/09 05:38:12;;;;;;;17.77;11.65;;;;;;;0.65;100.00;93022.63;4991266;28;20046;-77
2023/12/09 05:40:38;;;;;;;16.83;11.38;;;;;;;0.68;100.00;93024.06;4993194;28;20053;-78
2023/12/09 05:43:05;;;;;;;10.18;7.78;;;;;;;0.72;100.00;93027.84;4991760;28;20050;-77
2023/12/09 05:45:33;;;;;;;10.90;7.82;;;;;;;0.70;100.00;93042.38;5000616;28;20060;-78
2023/12/09 05:48:01;;;;;;;9.20;6.90;;;;;;;0.70;100.00;93038.13;4990901;28;20053;-79
2023/12/09 05:50:28;;;;;;;11.82;7.53;;;;;;;0.45;100.00;93040.53;4998692;28;20054;-78
2023/12/09 05:52:55;;;;;;;12.48;9.05;;;;;;;0.68;100.00;93016.47;4991929;28;20050;-79
2023/12/09 05:55:22;;;;;;;10.48;8.00;;;;;;;0.90;100.00;93046.25;4994202;28;20054;-79
2023/12/09 05:57:49;;;;;;;15.85;10.63;;;;;;;0.97;100.00;93051.44;4995679;28;20042;-79
2023/12/09 06:00:16;;;;;;;14.93;10.82;;;;;;;1.09;100.00;93044.38;4996142;28;20497;-79
2023/12/09 06:02:43;;;;;;;18.08;12.15;;;;;;;1.11;100.00;93047.53;4991653;28;20133;-78
2023/12/09 06:05:11;;;;;;;41.25;19.27;;;;;;;0.95;100.00;93045.75;4991164;28;20375;-79
2023/12/09 06:07:38;;;;;;;17.38;12.43;;;;;;;1.00;100.00;93053.69;4991136;28;20141;-78
2023/12/09 06:10:06;;;;;;;24.45;14.40;;;;;;;0.93;100.00;93050.97;4990784;28;20081;-78
2023/12/09 06:12:33;;;;;;;19.88;14.50;;;;;;;0.93;100.00;93047.66;4991904;28;20058;-77
2023/12/09 06:15:00;;;;;;;12.27;10.43;;;;;;;1.04;100.00;93057.50;4990446;28;20129;-76
2023/12/09 06:17:27;;;;;;;11.45;9.40;;;;;;;1.11;100.00;93064.47;4991228;28;20079;-78
2023/12/09 06:19:54;;;;;;;13.25;9.90;;;;;;;1.09;100.00;93072.19;4989960;28;20058;-78
2023/12/09 06:22:23;;;;;;;16.00;11.35;;;;;;;1.19;100.00;93065.25;4992360;28;20115;-78
2023/12/09 06:24:51;;;;;;;15.30;11.20;;;;;;;1.31;100.00;93064.97;4990218;28;20129;-78
2023/12/09 06:27:18;;;;;;;18.80;13.15;;;;;;;1.18;100.00;93045.97;4991104;28;20046;-80
2023/12/09 06:29:46;;;;;;;14.05;9.77;;;;;;;1.32;100.00;93061.47;4996366;28;20054;-79
2023/12/09 06:32:14;;;;;;;13.57;10.57;;;;;;;1.33;100.00;93066.38;4991578;28;20050;-79
2023/12/09 06:34:41;;;;;;;14.07;10.65;;;;;;;1.17;100.00;93061.31;4991365;28;20141;-77
2023/12/09 06:37:08;;;;;;;15.00;11.18;;;;;;;1.17;100.00;93064.59;5003090;28;20148;-78
2023/12/09 06:39:36;;;;;;;14.27;11.32;;;;;;;1.15;100.00;93073.31;5006083;28;20050;-77
2023/12/09 06:42:03;;;;;;;9.93;8.15;;;;;;;0.96;100.00;93061.75;4993282;28;20054;-77
2023/12/09 06:44:31;;;;;;;10.82;8.43;;;;;;;0.83;100.00;93072.28;5006019;28;20060;-77
2023/12/09 06:46:57;;;;;;;12.90;9.20;;;;;;;0.71;100.00;93074.28;4993322;28;20058;-77
2023/12/09 06:49:24;;;;;;;13.23;10.15;;;;;;;0.87;100.00;93074.34;4992496;28;20606;-77
2023/12/09 06:51:51;;;;;;;12.10;8.82;;;;;;;0.76;100.00;93067.84;4993254;28;20849;-77
2023/12/09 06:54:18;;;;;;;12.00;9.15;;;;;;;0.57;100.00;93068.06;4996546;28;20053;-77
2023/12/09 06:56:47;;;;;;;13.25;10.57;;;;;;;0.70;100.00;93080.28;4990390;28;20054;-77
2023/12/09 06:59:13;;;;;;;13.65;9.45;;;;;;;0.76;100.00;93067.03;4989472;28;20053;-78
2023/12/09 07:01:43;;;;;;;12.07;9.73;;;;;;;0.63;100.00;93072.53;4997309;28;20042;-77
2023/12/09 07:04:12;;;;;;;9.98;7.63;;;;;;;0.70;100.00;93071.00;4999885;28;20076;-77
2023/12/09 07:06:39;;;;;;;13.38;9.23;;;;;;;0.72;100.00;93070.81;4992285;28;20518;-77
2023/12/09 07:09:06;;;;;;;12.45;9.85;;;;;;;0.76;100.00;93074.63;4997840;28;20053;-77
2023/12/09 07:11:33;;;;;;;12.82;8.70;;;;;;;0.86;100.00;93085.41;5001227;28;20045;-77
2023/12/09 07:14:02;;;;;;;12.40;9.23;;;;;;;0.97;100.00;93083.56;4996464;28;20058;-77
2023/12/09 07:16:29;;;;;;;14.30;9.68;;;;;;;0.95;100.00;93085.44;5002231;28;20044;-77
2023/12/09 07:18:59;;;;;;;27.92;18.42;;;;;;;1.02;100.00;93094.00;4998294;28;20047;-78
2023/12/09 07:21:26;;;;;;;23.48;15.30;;;;;;;1.02;100.00;93087.19;4999398;28;20069;-77
2023/12/09 07:23:53;;;;;;;27.83;17.23;;;;;;;1.03;100.00;93081.19;4991953;28;20527;-77
2023/12/09 07:26:20;;;;;;;17.48;11.57;;;;;;;1.02;100.00;93083.88;4990668;28;20050;-77
2023/12/09 07:28:47;;;;;;;17.48;12.27;;;;;;;0.91;100.00;93075.63;4992908;28;20103;-77
2023/12/09 07:31:17;;;;;;;19.35;11.70;;;;;;;0.92;100.00;93097.44;4996750;28;20042;-77
2023/12/09 07:33:44;;;;;;;24.60;15.75;;;;;;;0.91;100.00;93095.06;4993358;28;20044;-77
2023/12/09 07:36:11;;;;;;;21.23;13.32;;;;;;;0.98;100.00;93106.16;4992258;28;20054;-77
2023/12/09 07:38:38;;;;;;;57.28;31.00;;;;;;;1.01;100.00;93102.50;4994457;28;20064;-77
2023/12/09 07:43:49;;;;;;;19.85;13.68;;;;;;;1.03;100.00;93108.22;4997289;28;20061;-77
2023/12/09 07:46:18;;;;;;;24.52;14.68;;;;;;;1.02;100.00;93111.72;4994721;28;20042;-77
2023/12/09 07:48:45;;;;;;;15.38;10.27;;;;;;;0.84;100.00;93109.28;4994700;28;20504;-77
2023/12/09 07:51:11;;;;;;;12.85;9.15;;;;;;;0.82;100.00;93106.88;4991815;28;20053;-77
2023/12/09 07:53:38;;;;;;;11.38;8.82;;;;;;;0.89;100.00;93112.91;4993955;28;20510;-77
2023/12/09 07:56:06;;;;;;;11.05;8.35;;;;;;;0.78;100.00;93103.06;4993598;28;20053;-77
2023/12/09 07:58:33;;;;;;;7.10;5.50;;;;;;;0.92;100.00;93114.34;4994095;28;21000;-77
2023/12/09 08:01:01;;;;;;;10.65;8.10;;;;;;;0.78;100.00;93114.00;4993709;28;20049;-77
2023/12/09 08:03:32;;;;;;;9.20;7.03;;;;;;;0.85;100.00;93123.50;4993299;28;20050;-78
2023/12/09 08:05:59;;;;;;;8.88;6.97;;;;;;;0.69;100.00;93117.41;4991715;28;20123;-77
2023/12/09 08:08:27;;;;;;;12.52;7.10;;;;;;;0.44;100.00;93108.91;4992460;28;21134;-77
2023/12/09 08:10:54;;;;;;;9.82;7.30;;;;;;;0.69;100.00;93111.59;4990655;28;20519;-78
2023/12/09 08:13:21;;;;;;;8.07;6.15;;;;;;;0.56;100.00;93102.69;4989726;28;20050;-78
2023/12/09 08:15:48;;;;;;;7.70;6.15;;;;;;;0.58;100.00;93102.50;4991511;28;20061;-78
2023/12/09 08:18:16;;;;;;;8.88;7.03;;;;;;;0.53;100.00;93124.00;4990877;28;20129;-78
2023/12/09 08:20:44;;;;;;;12.20;9.23;;;;;;;0.72;100.00;93121.38;4990558;28;20079;-78
2023/12/09 08:23:11;;;;;;;11.32;8.55;;;;;;;0.72;100.00;93114.59;4990167;28;20164;-79
2023/12/09 08:25:39;;;;;;;10.13;7.97;;;;;;;0.74;100.00;93120.28;4990854;28;20060;-78
2023/12/09 08:28:07;;;;;;;10.30;8.55;;;;;;;0.90;100.00;93126.34;4990639;28;20077;-79
2023/12/09 08:30:34;;;;;;;10.82;8.27;;;;;;;0.95;100.00;93136.00;4994338;28;20045;-79
2023/12/09 08:33:00;;;;;;;13.77;9.40;;;;;;;1.04;100.00;93135.09;4993049;28;20128;-79
2023/12/09 08:35:27;;;;;;;12.40;9.18;;;;;;;1.16;100.00;93141.47;4996206;28;20046;-79
2023/12/09 08:37:56;;;;;;;7.60;5.95;;;;;;;1.06;100.00;93139.06;4988370;28;20042;-79
2023/12/09 08:40:23;;;;;;;12.70;10.32;;;;;;;0.73;100.00;93133.06;4988041;28;20048;-79
2023/12/09 08:42:50;;;;;;;11.77;10.05;;;;;;;0.79;100.00;93133.25;4987820;28;20058;-79
2023/12/09 08:45:18;;;;;;;13.18;8.70;;;;;;;0.86;100.00;93123.34;4987982;28;20086;-79
2023/12/09 08:47:45;;;;;;;14.77;10.93;;;;;;;1.05;100.00;93118.97;4987847;28;20525;-79
2023/12/09 08:50:12;;;;;;;15.30;13.32;;;;;;;1.18;100.00;93142.13;4996172;28;20081;-79
2023/12/09 08:52:39;;;;;;;14.60;10.52;;;;;;;1.16;100.00;93140.69;4991163;28;20516;-79
2023/12/09 08:55:08;;;;;;;11.45;8.50;;;;;;;1.22;100.00;93141.78;4991418;28;20093;-80
2023/12/09 08:57:35;;;;;;;12.60;9.65;;;;;;;1.22;100.00;93127.41;4988036;28;20050;-79
2023/12/09 09:00:07;;;;;;;9.70;6.85;;;;;;;0.79;100.00;93145.13;4996914;28;20123;-80
2023/12/09 09:02:34;;;;;;;15.85;11.07;;;;;;;1.03;100.00;93144.41;4990371;28;20042;-79
2023/12/09 09:05:01;;;;;;;65.65;41.75;;;;;;;1.15;100.00;93141.63;4987540;28;20050;-79
2023/12/09 09:07:27;;;;;;;33.67;22.73;;;;;;;1.22;100.00;93135.00;4988192;28;20061;-80
2023/12/09 09:09:54;;;;;;;21.63;10.40;;;;;;;1.33;100.00;93132.19;4987624;28;20134;-80
2023/12/09 09:12:23;;;;;;;57.15;40.15;;;;;;;1.32;100.00;93129.81;4987686;28;20500;-80
2023/12/09 09:14:50;;;;;;;7.18;6.05;;;;;;;0.20;100.00;92999.22;4990574;28;20051;-80
2023/12/09 09:17:17;;;;;;;6.35;4.80;;;;;;;0.80;100.00;93124.72;4987639;28;20046;-80
2023/12/09 09:19:44;;;;;;;14.98;11.05;;;;;;;0.83;100.00;93125.41;4988476;28;20085;-79
2023/12/09 09:22:11;;;;;;;160.48;81.30;;;;;;;0.86;100.00;93120.81;4989312;28;20496;-80
2023/12/09 09:24:38;;;;;;;28.88;17.35;;;;;;;1.00;100.00;93124.50;4987659;28;20046;-79
2023/12/09 09:27:05;;;;;;;19.27;14.88;;;;;;;1.10;100.00;93121.84;4988230;28;20054;-80
2023/12/09 09:29:34;;;;;;;18.30;14.00;;;;;;;1.32;100.00;93127.28;4990314;28;20133;-80
2023/12/09 09:32:01;;;;;;;18.15;14.93;;;;;;;1.44;100.00;93125.25;4991254;28;20046;-80
2023/12/09 09:34:28;;;;;;;22.65;16.20;;;;;;;1.66;100.00;93113.72;4991487;28;20054;-80
2023/12/09 09:36:54;;;;;;;14.25;11.02;;;;;;;1.74;100.00;93107.88;4990954;28;20046;-80
2023/12/09 09:39:21;;;;;;;9.30;6.38;;;;;;;1.75;100.00;93109.44;4993178;28;20133;-79
2023/12/09 09:41:59;;;;;;;8.40;5.95;;;;;;;1.87;100.00;93095.50;4994388;28;20567;-79
2023/12/09 09:44:28;;;;;;;11.05;7.72;;;;;;;2.01;100.00;93103.44;4993015;28;20104;-79
2023/12/09 09:46:58;;;;;;;13.18;9.55;;;;;;;1.92;100.00;93097.59;4990950;28;20054;-80
2023/12/09 09:49:25;;;;;;;19.27;14.25;;;;;;;1.87;100.00;93103.09;4995270;28;20092;-79
2023/12/09 09:51:57;;;;;;;8.73;6.80;;;;;;;1.80;100.00;93101.41;4989679;28;20054;-79
2023/12/09 09:54:28;;;;;;;12.70;9.63;;;;;;;1.83;100.00;93090.94;4992422;28;20050;-79
2023/12/09 09:56:58;;;;;;;10.23;8.13;;;;;;;1.83;100.00;93088.41;4990513;28;20157;-79
2023/12/09 09:59:25;;;;;;;9.60;6.90;;;;;;;1.92;100.00;93094.25;4994445;28;20105;-79
2023/12/09 10:01:53;;;;;;;14.15;8.95;;;;;;;1.79;100.00;93104.84;5004191;28;20060;-79
2023/12/09 10:04:21;;;;;;;51.45;37.17;;;;;;;1.51;100.00;93100.09;5008885;28;20053;-80
2023/12/09 10:06:49;;;;;;;6.80;5.60;;;;;;;1.46;100.00;93103.91;5008477;28;20422;-79
2023/12/09 10:09:16;;;;;;;43.38;26.38;;;;;;;1.51;100.00;93102.63;4999407;28;20101;-79
2023/12/09 10:11:43;;;;;;;37.10;21.13;;;;;;;1.51;100.00;93098.34;5005986;28;20128;-79
2023/12/09 10:14:10;;;;;;;12.85;7.95;;;;;;;1.68;100.00;93098.38;5001042;28;20054;-80
2023/12/09 10:16:38;;;;;;;11.13;8.07;;;;;;;1.76;100.00;93100.88;4991687;28;20061;-79
2023/12/09 10:19:08;;;;;;;10.55;7.95;;;;;;;1.91;100.00;93092.66;4990034;28;20048;-79
2023/12/09 10:21:37;;;;;;;11.30;8.57;;;;;;;1.76;100.00;93057.06;4996168;28;20054;-79
2023/12/09 10:24:05;;;;;;;18.58;12.50;;;;;;;2.02;100.00;93084.75;4993058;28;20423;-79
2023/12/09 10:26:32;;;;;;;11.52;8.20;;;;;;;2.10;100.00;93096.63;4990519;28;20141;-80
2023/12/09 10:28:59;;;;;;;13.40;9.40;;;;;;;2.16;100.00;93090.91;4994271;28;20058;-80
2023/12/09 10:31:28;;;;;;;7.32;5.40;;;;;;;2.20;100.00;93097.25;4990269;28;20522;-79
2023/12/09 10:33:56;;;;;;;67.38;29.30;;;;;;;1.58;100.00;93063.88;4990293;28;20049;-79
2023/12/09 10:36:24;;;;;;;56.33;25.65;;;;;;;1.37;100.00;93081.25;4996034;28;20397;-79
2023/12/09 10:38:54;;;;;;;49.15;22.63;;;;;;;1.58;100.00;93075.75;4999678;28;20521;-79
2023/12/09 10:41:23;;;;;;;22.67;12.10;;;;;;;1.28;100.00;93076.19;4999514;28;20403;-79
2023/12/09 10:43:50;;;;;;;279.60;119.22;;;;;;;1.13;100.00;93072.69;5000670;28;21336;-78
2023/12/09 10:46:16;;;;;;;71.93;33.97;;;;;;;1.32;100.00;93061.47;5000722;28;20052;-78
2023/12/09 10:48:43;;;;;;;28.25;16.55;;;;;;;1.49;100.00;93054.69;5000897;28;20128;-78
2023/12/09 10:51:10;;;;;;;14.77;10.50;;;;;;;1.66;100.00;93058.00;4996881;28;20041;-78
2023/12/09 10:53:37;;;;;;;13.60;8.98;;;;;;;1.85;100.00;93069.56;5000915;28;20124;-78
2023/12/09 10:56:08;;;;;;;8.13;6.20;;;;;;;1.90;100.00;93073.38;4998905;28;20571;-78
2023/12/09 10:58:37;;;;;;;6.70;5.22;;;;;;;1.98;100.00;93069.06;4998862;28;20122;-78
2023/12/09 11:01:05;;;;;;;13.23;9.43;;;;;;;2.06;100.00;93062.41;4990097;28;20466;-78
2023/12/09 11:03:33;;;;;;;12.05;8.18;;;;;;;2.19;100.00;93066.97;4989230;28;20058;-78
2023/12/09 11:06:02;;;;;;;12.77;8.75;;;;;;;2.18;100.00;93050.97;4991242;28;20054;-78
2023/12/09 11:08:29;;;;;;;15.60;10.05;;;;;;;2.16;100.00;93057.19;4994604;28;20125;-78
2023/12/09 11:10:57;;;;;;;13.25;8.75;;;;;;;2.37;100.00;93064.25;4989200;28;20045;-78
2023/12/09 11:13:29;;;;;;;128.25;53.88;;;;;;;2.47;100.00;93064.88;4989834;28;20061;-78
2023/12/09 11:16:13;;;;;;;43.65;19.67;;;;;;;2.29;100.00;93060.00;4991413;28;20101;-78
2023/12/09 11:18:50;;;;;;;34.95;17.90;;;;;;;2.02;100.00;93072.06;4989074;28;20053;-78
2023/12/09 11:21:18;;;;;;;228.10;89.18;;;;;;;1.76;100.00;93050.25;4996012;28;20049;-78
2023/12/09 11:23:48;;;;;;;33.78;16.70;;;;;;;1.76;100.00;93052.78;4989176;28;20050;-78